Terminal Aerodrome Forecast
Issued by NWS

Home | Current Version | Previous Version | Text Only | Print | Product List | Glossary On
Versions: 1 2 3 4 5 6 7 8 9 10 11 12 13 14 15 16
000
FTUS43 KGLD 230522
TAFMCK
TAF
KMCK 230522Z 2306/2406 13011KT P6SM BKN250
     FM230900 14011KT P6SM BKN015
      TEMPO 2311/2315 1SM BR BKN005
     FM231600 17015G25KT P6SM SCT005 BKN250
     FM231800 19020G30KT P6SM SCT250
     FM240300 13015G25KT P6SM VCTS SCT050CB BKN250=

USA.gov is the U.S. government's official web portal to all federal, state and local government web resources and services.